Time;durP1;ratioP1;P1;durP2;ratioP2;P2;SDS_P1;SDS_P2;PMS_P1;PMS_P2;Temp;Humidity;BMP_temperature;BMP_pressure;BME280_temperature;BME280_humidity;BME280_pressure;Samples;Min_cycle;Max_cycle;Signal;HPM_P1;HPM_P2
2023/09/29 00:01:38;;;;;;;7.07;3.17;;;;;;;-143.29;100.00;62188.47;5052563;28;20025;-87
2023/09/29 00:04:05;;;;;;;5.13;2.50;;;;;;;-143.29;100.00;62188.47;5050586;28;20021;-88
2023/09/29 00:06:35;;;;;;;6.15;2.45;;;;;;;-143.29;100.00;62188.47;5051930;28;20048;-87
2023/09/29 00:09:01;;;;;;;9.50;3.58;;;;;;;-143.29;100.00;62188.47;5052607;28;20040;-88
2023/09/29 00:11:31;;;;;;;5.00;2.78;;;;;;;-143.29;100.00;62188.47;5052109;28;20033;-88
2023/09/29 00:13:57;;;;;;;5.90;2.47;;;;;;;-143.29;100.00;62188.47;5050486;28;20028;-87
2023/09/29 00:16:22;;;;;;;5.65;2.85;;;;;;;-143.29;100.00;62188.47;5051750;28;20028;-87
2023/09/29 00:18:48;;;;;;;7.68;2.90;;;;;;;-143.29;100.00;62188.47;5034688;28;20399;-88
2023/09/29 00:21:13;;;;;;;5.80;2.47;;;;;;;-143.29;100.00;62188.47;5034680;28;20107;-88
2023/09/29 00:23:39;;;;;;;6.30;3.17;;;;;;;-143.29;100.00;62188.47;5034396;28;20040;-88
2023/09/29 00:26:05;;;;;;;5.50;2.53;;;;;;;-143.29;100.00;62188.47;5052059;28;20029;-88
2023/09/29 00:28:30;;;;;;;5.28;2.33;;;;;;;-143.29;100.00;62188.47;5052289;28;20221;-87
2023/09/29 00:30:55;;;;;;;5.28;2.65;;;;;;;-143.29;100.00;62188.47;5052131;28;20407;-87
2023/09/29 00:33:21;;;;;;;4.00;1.90;;;;;;;-143.29;100.00;62188.47;5052065;28;20022;-88
2023/09/29 00:35:47;;;;;;;4.03;1.70;;;;;;;-143.29;100.00;62188.47;5052087;28;20395;-88
2023/09/29 00:38:13;;;;;;;4.85;1.63;;;;;;;-143.29;100.00;62188.47;5052014;28;20040;-88
2023/09/29 00:40:38;;;;;;;3.70;1.35;;;;;;;-143.29;100.00;62188.47;5051924;28;20029;-88
2023/09/29 00:43:04;;;;;;;6.03;2.00;;;;;;;-143.29;100.00;62188.47;5051844;28;20029;-88
2023/09/29 00:45:29;;;;;;;3.28;1.30;;;;;;;-143.29;100.00;62188.47;5051447;28;20029;-88
2023/09/29 00:48:05;;;;;;;3.58;1.58;;;;;;;-143.29;100.00;62188.47;5051981;28;20061;-88
2023/09/29 00:50:31;;;;;;;4.82;1.35;;;;;;;-143.29;100.00;62188.47;5049445;28;20029;-88
2023/09/29 00:52:58;;;;;;;2.75;1.30;;;;;;;-143.29;100.00;62188.47;5051717;28;20021;-88
2023/09/29 00:55:28;;;;;;;2.95;1.20;;;;;;;-143.29;100.00;62188.47;5051461;28;20020;-87
2023/09/29 00:57:57;;;;;;;4.07;1.58;;;;;;;-143.29;100.00;62188.47;5051548;28;20037;-88
2023/09/29 01:02:54;;;;;;;2.85;1.50;;;;;;;-143.29;100.00;62188.47;5051148;28;20033;-87
2023/09/29 01:05:20;;;;;;;3.03;1.35;;;;;;;-143.29;100.00;62188.47;5051338;28;20035;-88
2023/09/29 01:07:46;;;;;;;2.10;1.80;;;;;;;-143.29;100.00;62188.47;5051282;28;20027;-88
2023/09/29 01:10:13;;;;;;;2.47;1.98;;;;;;;-143.29;100.00;62188.47;5051427;28;20036;-87
2023/09/29 01:12:39;;;;;;;1.95;1.77;;;;;;;-143.29;100.00;62188.47;5051707;28;20394;-88
2023/09/29 01:15:05;;;;;;;2.85;1.90;;;;;;;-143.29;100.00;62188.47;5051261;28;20021;-87
2023/09/29 01:17:31;;;;;;;3.25;1.95;;;;;;;-143.29;100.00;62188.47;5051572;28;20028;-87
2023/09/29 01:19:56;;;;;;;2.47;1.80;;;;;;;-143.29;100.00;62188.47;5050905;28;20025;-87
2023/09/29 01:22:22;;;;;;;1.83;1.60;;;;;;;-143.29;100.00;62188.47;5051057;28;20486;-87
2023/09/29 01:24:47;;;;;;;2.17;1.85;;;;;;;-143.29;100.00;62188.47;5050964;28;20483;-88
2023/09/29 01:27:12;;;;;;;2.38;1.75;;;;;;;-143.29;100.00;62188.47;5032983;28;20048;-88
2023/09/29 01:29:43;;;;;;;2.35;1.70;;;;;;;-143.29;100.00;62188.47;5032880;28;20024;-87
2023/09/29 01:32:12;;;;;;;2.65;1.75;;;;;;;-143.29;100.00;62188.47;5051110;28;20159;-87
2023/09/29 01:34:37;;;;;;;2.45;2.05;;;;;;;-143.29;100.00;62188.47;5051008;28;20298;-87
2023/09/29 01:37:03;;;;;;;2.75;2.33;;;;;;;-143.29;100.00;62188.47;5047054;28;20314;-88
2023/09/29 01:39:30;;;;;;;2.88;2.58;;;;;;;-143.29;100.00;62188.47;5050778;28;20029;-88
2023/09/29 01:41:56;;;;;;;3.47;2.65;;;;;;;-143.29;100.00;62188.47;5050653;28;20522;-88
2023/09/29 01:44:21;;;;;;;3.58;2.88;;;;;;;-143.29;100.00;62188.47;5051000;28;20025;-88
2023/09/29 01:46:49;;;;;;;2.70;2.00;;;;;;;-143.29;100.00;62188.47;5050743;28;20529;-88
2023/09/29 01:49:15;;;;;;;4.55;2.30;;;;;;;-143.29;100.00;62188.47;5050651;28;20074;-88
2023/09/29 01:51:40;;;;;;;1.88;1.63;;;;;;;-143.29;100.00;62188.47;5049788;28;20037;-88
2023/09/29 01:54:05;;;;;;;1.70;1.30;;;;;;;-143.29;100.00;62188.47;5050282;28;20412;-88
2023/09/29 01:56:31;;;;;;;1.58;1.42;;;;;;;-143.29;100.00;62188.47;5050678;28;20501;-88
2023/09/29 01:58:57;;;;;;;2.10;1.67;;;;;;;-143.29;100.00;62188.47;5051531;28;20032;-88
2023/09/29 02:01:23;;;;;;;3.03;2.17;;;;;;;-143.29;100.00;62188.47;5051539;28;20017;-88
2023/09/29 02:03:49;;;;;;;2.42;1.50;;;;;;;-143.29;100.00;62188.47;5051451;28;20387;-88
2023/09/29 02:06:15;;;;;;;6.05;1.90;;;;;;;-143.29;100.00;62188.47;5051745;28;20024;-88
2023/09/29 02:08:42;;;;;;;2.72;1.75;;;;;;;-143.29;100.00;62188.47;5051819;28;20056;-88
2023/09/29 02:11:08;;;;;;;2.58;1.83;;;;;;;-143.29;100.00;62188.47;5051730;28;20025;-88
2023/09/29 02:13:34;;;;;;;2.50;1.92;;;;;;;-143.29;100.00;62188.47;5056198;28;20024;-88
2023/09/29 02:16:00;;;;;;;4.47;3.33;;;;;;;-143.29;100.00;62188.47;5051642;28;20024;-88
2023/09/29 02:18:27;;;;;;;4.47;3.10;;;;;;;-143.29;100.00;62188.47;5055927;28;20487;-88
2023/09/29 02:20:55;;;;;;;5.80;4.10;;;;;;;-143.29;100.00;62188.47;5056470;28;20501;-88
2023/09/29 02:23:22;;;;;;;5.15;4.10;;;;;;;-143.29;100.00;62188.47;5051321;28;20453;-88
2023/09/29 02:25:48;;;;;;;8.48;4.57;;;;;;;-143.29;100.00;62188.47;5050149;28;20028;-88
2023/09/29 02:28:14;;;;;;;6.07;4.97;;;;;;;-143.29;100.00;62188.47;5049703;28;20025;-88
2023/09/29 02:30:40;;;;;;;5.35;4.38;;;;;;;-143.29;100.00;62188.47;5047603;28;20032;-88
2023/09/29 02:33:06;;;;;;;4.85;4.00;;;;;;;-143.29;100.00;62188.47;5050039;28;20021;-88
2023/09/29 02:35:31;;;;;;;6.18;4.38;;;;;;;-143.29;100.00;62188.47;5050080;28;20024;-89
2023/09/29 02:37:56;;;;;;;5.00;4.43;;;;;;;-143.29;100.00;62188.47;5049895;28;20029;-88
2023/09/29 02:40:23;;;;;;;5.82;4.80;;;;;;;-143.29;100.00;62188.47;5051625;28;20032;-88
2023/09/29 02:42:49;;;;;;;4.95;4.43;;;;;;;-143.29;100.00;62188.47;5052693;28;20112;-88
2023/09/29 02:45:15;;;;;;;14.43;5.15;;;;;;;-143.29;100.00;62188.47;5061782;28;20437;-87
2023/09/29 02:47:42;;;;;;;7.32;5.03;;;;;;;-143.29;100.00;62188.47;5074508;28;20108;-88
2023/09/29 02:50:12;;;;;;;5.07;4.57;;;;;;;-143.29;100.00;62188.47;5055074;28;20112;-88
2023/09/29 02:52:38;;;;;;;5.03;4.25;;;;;;;-143.29;100.00;62188.47;5054815;28;20334;-87
2023/09/29 02:55:05;;;;;;;5.97;4.85;;;;;;;-143.29;100.00;62188.47;5055051;28;20170;-87
2023/09/29 02:57:31;;;;;;;5.20;3.95;;;;;;;-143.29;100.00;62188.47;5054156;28;20071;-87
2023/09/29 02:59:57;;;;;;;5.53;4.88;;;;;;;-143.29;100.00;62188.47;5054840;28;20033;-88
2023/09/29 03:02:23;;;;;;;6.18;4.68;;;;;;;-143.29;100.00;62188.47;5054737;28;20021;-88
2023/09/29 03:04:48;;;;;;;7.40;5.50;;;;;;;-143.29;100.00;62188.47;5054874;28;20025;-88
2023/09/29 03:07:14;;;;;;;7.72;5.78;;;;;;;-143.29;100.00;62188.47;5054908;28;20064;-87
2023/09/29 03:09:40;;;;;;;8.13;5.78;;;;;;;-143.29;100.00;62188.47;5054508;28;20064;-87
2023/09/29 03:12:05;;;;;;;9.30;5.28;;;;;;;-143.29;100.00;62188.47;5053833;28;20072;-88
2023/09/29 03:14:32;;;;;;;6.90;5.57;;;;;;;-143.29;100.00;62188.47;5054874;28;20047;-87
2023/09/29 03:16:58;;;;;;;5.80;4.82;;;;;;;-143.29;100.00;62188.47;5054617;28;20085;-87
2023/09/29 03:19:24;;;;;;;9.30;5.45;;;;;;;-143.29;100.00;62188.47;5054638;28;20120;-89
2023/09/29 03:21:50;;;;;;;6.78;5.18;;;;;;;-143.29;100.00;62188.47;5054654;28;20040;-88
2023/09/29 03:24:15;;;;;;;7.07;4.82;;;;;;;-143.29;100.00;62188.47;5054409;28;20111;-88
2023/09/29 03:26:41;;;;;;;6.50;5.25;;;;;;;-143.29;100.00;62188.47;5054270;28;20024;-89
2023/09/29 03:29:07;;;;;;;5.97;4.75;;;;;;;-143.29;100.00;62188.47;5053470;28;20033;-89
2023/09/29 03:31:32;;;;;;;8.60;5.68;;;;;;;-143.29;100.00;62188.47;5054452;28;20083;-89
2023/09/29 03:33:58;;;;;;;8.55;5.50;;;;;;;-143.29;100.00;62188.47;5054160;28;20021;-89
2023/09/29 03:36:23;;;;;;;10.25;5.22;;;;;;;-143.29;100.00;62188.47;5054330;28;20028;-89
2023/09/29 03:38:49;;;;;;;5.75;4.32;;;;;;;-143.29;100.00;62188.47;5054431;28;20146;-89
2023/09/29 03:41:14;;;;;;;12.95;5.40;;;;;;;-143.29;100.00;62188.47;5036140;28;20116;-88
2023/09/29 03:43:40;;;;;;;8.13;5.03;;;;;;;-143.29;100.00;62188.47;5053073;28;20115;-87
2023/09/29 03:46:15;;;;;;;10.85;5.00;;;;;;;-143.29;100.00;62188.47;5054147;28;20027;-88
2023/09/29 03:48:46;;;;;;;10.07;5.75;;;;;;;-143.29;100.00;62188.47;5054253;28;20036;-88
2023/09/29 03:51:11;;;;;;;9.25;5.28;;;;;;;-143.29;100.00;62188.47;5052609;28;20040;-88
2023/09/29 03:53:38;;;;;;;13.27;5.72;;;;;;;-143.29;100.00;62188.47;5053570;28;20025;-87
2023/09/29 03:56:03;;;;;;;10.40;5.03;;;;;;;-143.29;100.00;62188.47;5053914;28;20411;-87
2023/09/29 03:58:29;;;;;;;12.20;6.30;;;;;;;-143.29;100.00;62188.47;5053324;28;20033;-88
2023/09/29 04:00:54;;;;;;;9.82;4.70;;;;;;;-143.29;100.00;62188.47;5053703;28;20079;-87
2023/09/29 04:03:20;;;;;;;8.15;4.93;;;;;;;-143.29;100.00;62188.47;5053827;28;20382;-87
2023/09/29 04:05:45;;;;;;;10.20;5.18;;;;;;;-143.29;100.00;62188.47;5035485;28;20106;-88
2023/09/29 04:08:10;;;;;;;11.00;4.95;;;;;;;-143.29;100.00;62188.47;5035409;28;20032;-88
2023/09/29 04:10:36;;;;;;;11.95;5.35;;;;;;;-143.29;100.00;62188.47;5053700;28;20021;-88
2023/09/29 04:13:02;;;;;;;15.27;5.28;;;;;;;-143.29;100.00;62188.47;5052777;28;20021;-88
2023/09/29 04:15:28;;;;;;;12.52;5.18;;;;;;;-143.29;100.00;62188.47;5053442;28;20040;-87
2023/09/29 04:17:53;;;;;;;10.40;5.28;;;;;;;-143.29;100.00;62188.47;5053347;28;20025;-88
2023/09/29 04:20:19;;;;;;;9.63;4.82;;;;;;;-143.29;100.00;62188.47;5051825;28;20380;-90
2023/09/29 04:22:45;;;;;;;9.75;4.85;;;;;;;-143.29;100.00;62188.47;5052885;28;20060;-88
2023/09/29 04:25:10;;;;;;;7.55;4.18;;;;;;;-143.29;100.00;62188.47;5035454;28;20079;-89
2023/09/29 04:27:36;;;;;;;13.25;5.43;;;;;;;-143.29;100.00;62188.47;5053079;28;20411;-89
2023/09/29 04:30:05;;;;;;;11.38;5.13;;;;;;;-143.29;100.00;62188.47;5053080;28;20120;-88
2023/09/29 04:32:31;;;;;;;12.38;5.50;;;;;;;-143.29;100.00;62188.47;5052523;28;20032;-88
2023/09/29 04:34:56;;;;;;;10.52;5.05;;;;;;;-143.29;100.00;62188.47;5034501;28;20025;-88
2023/09/29 04:37:21;;;;;;;10.32;4.65;;;;;;;-143.29;100.00;62188.47;5033546;28;20496;-88
2023/09/29 04:39:47;;;;;;;13.57;4.57;;;;;;;-143.29;100.00;62188.47;5045710;28;20391;-88
2023/09/29 04:42:12;;;;;;;13.10;4.90;;;;;;;-143.29;100.00;62188.47;5072850;28;20024;-89
2023/09/29 04:44:38;;;;;;;11.05;4.63;;;;;;;-143.29;100.00;62188.47;5072977;28;20021;-88
2023/09/29 04:47:04;;;;;;;7.97;4.60;;;;;;;-143.29;100.00;62188.47;5053061;28;20379;-88
2023/09/29 04:49:29;;;;;;;11.32;4.78;;;;;;;-143.29;100.00;62188.47;5067288;28;20036;-88
2023/09/29 04:51:55;;;;;;;13.90;4.85;;;;;;;-143.29;100.00;62188.47;5072404;28;20031;-88
2023/09/29 04:54:20;;;;;;;8.40;4.43;;;;;;;-143.29;100.00;62188.47;5057749;28;20067;-88
2023/09/29 04:56:45;;;;;;;15.35;4.70;;;;;;;-143.29;100.00;62188.47;5052830;28;20021;-88
2023/09/29 04:59:11;;;;;;;10.07;4.72;;;;;;;-143.29;100.00;62188.47;5052282;28;20085;-88
2023/09/29 05:01:36;;;;;;;14.55;4.20;;;;;;;-143.29;100.00;62188.47;5052775;28;20032;-87
2023/09/29 05:04:02;;;;;;;10.27;4.05;;;;;;;-143.29;100.00;62188.47;5052133;28;20025;-88
2023/09/29 05:06:28;;;;;;;14.10;4.18;;;;;;;-143.29;100.00;62188.47;5052702;28;20036;-88
2023/09/29 05:08:54;;;;;;;9.23;3.63;;;;;;;-143.29;100.00;62188.47;5053128;28;20056;-88
2023/09/29 05:11:24;;;;;;;17.38;3.78;;;;;;;-143.29;100.00;62188.47;5052899;28;20463;-88
2023/09/29 05:13:51;;;;;;;8.02;3.40;;;;;;;-143.29;100.00;62188.47;5052070;28;20060;-88
2023/09/29 05:16:17;;;;;;;11.75;3.75;;;;;;;-143.29;100.00;62188.47;5052531;28;20036;-88
2023/09/29 05:18:43;;;;;;;11.05;3.45;;;;;;;-143.29;100.00;62188.47;5052395;28;20033;-88
2023/09/29 05:21:10;;;;;;;9.55;3.28;;;;;;;-143.29;100.00;62188.47;5052520;28;20404;-88
2023/09/29 05:23:36;;;;;;;8.32;3.13;;;;;;;-143.29;100.00;62188.47;5052729;28;20451;-88
2023/09/29 05:26:04;;;;;;;9.25;3.22;;;;;;;-143.29;100.00;62188.47;5052455;28;20025;-87
2023/09/29 05:28:30;;;;;;;8.27;2.97;;;;;;;-143.29;100.00;62188.47;5052223;28;20032;-88
2023/09/29 05:30:56;;;;;;;10.48;3.20;;;;;;;-143.29;100.00;62188.47;5052466;28;20025;-88
2023/09/29 05:33:21;;;;;;;9.45;2.90;;;;;;;-143.29;100.00;62188.47;5052143;28;20090;-88
2023/09/29 05:35:47;;;;;;;8.88;2.75;;;;;;;-143.29;100.00;62188.47;5052293;28;20053;-88
2023/09/29 05:38:12;;;;;;;11.85;2.88;;;;;;;-143.29;100.00;62188.47;5034183;28;20044;-88
2023/09/29 05:40:38;;;;;;;8.32;2.85;;;;;;;-143.29;100.00;62188.47;5051984;28;20029;-88
2023/09/29 05:43:07;;;;;;;8.80;2.70;;;;;;;-143.29;100.00;62188.47;5051983;28;20426;-88
2023/09/29 05:45:32;;;;;;;9.40;2.83;;;;;;;-143.29;100.00;62188.47;5052020;28;20025;-87
2023/09/29 05:47:57;;;;;;;11.63;4.32;;;;;;;-143.29;100.00;62188.47;5052085;28;20356;-88
2023/09/29 05:50:23;;;;;;;9.05;2.75;;;;;;;-143.29;100.00;62188.47;5052349;28;20503;-89
2023/09/29 05:52:49;;;;;;;7.80;2.17;;;;;;;-143.29;100.00;62188.47;5051778;28;20318;-88
2023/09/29 05:55:15;;;;;;;5.72;2.05;;;;;;;-143.29;100.00;62188.47;5051828;28;20545;-88
2023/09/29 05:57:40;;;;;;;26.95;2.58;;;;;;;-143.29;100.00;62188.47;5051822;28;20082;-87
2023/09/29 06:00:06;;;;;;;9.57;3.33;;;;;;;-143.29;100.00;62188.47;5051801;28;20056;-88
2023/09/29 06:02:32;;;;;;;11.27;2.08;;;;;;;-143.29;100.00;62188.47;5051605;28;20470;-88
2023/09/29 06:04:59;;;;;;;9.05;2.47;;;;;;;-143.29;100.00;62188.47;5052030;28;20021;-88
2023/09/29 06:07:25;;;;;;;6.35;2.30;;;;;;;-143.29;100.00;62188.47;5051822;28;20032;-88
2023/09/29 06:09:50;;;;;;;8.20;1.95;;;;;;;-143.29;100.00;62188.47;5051597;28;20037;-88
2023/09/29 06:12:15;;;;;;;13.38;2.38;;;;;;;-143.29;100.00;62188.47;5051613;28;20479;-88
2023/09/29 06:14:41;;;;;;;8.00;2.40;;;;;;;-143.29;100.00;62188.47;5051648;28;20021;-88
2023/09/29 06:17:06;;;;;;;9.80;2.67;;;;;;;-143.29;100.00;62188.47;5051771;28;20031;-88
2023/09/29 06:19:31;;;;;;;8.32;2.85;;;;;;;-143.29;100.00;62188.47;5051611;28;20071;-88
2023/09/29 06:21:57;;;;;;;7.85;2.30;;;;;;;-143.29;100.00;62188.47;5051531;28;20016;-88
2023/09/29 06:24:22;;;;;;;8.85;2.55;;;;;;;-143.29;100.00;62188.47;5033689;28;20082;-88
2023/09/29 06:26:48;;;;;;;9.27;3.25;;;;;;;-143.29;100.00;62188.47;5051366;28;20033;-88
2023/09/29 06:29:13;;;;;;;8.40;2.53;;;;;;;-143.29;100.00;62188.47;5051567;28;20025;-88
2023/09/29 06:31:38;;;;;;;10.55;3.17;;;;;;;-143.29;100.00;62188.47;5051504;28;20471;-88
2023/09/29 06:34:04;;;;;;;8.60;3.42;;;;;;;-143.29;100.00;62188.47;5051237;28;20036;-87
2023/09/29 06:36:29;;;;;;;12.65;3.83;;;;;;;-143.29;100.00;62188.47;5051580;28;20051;-88
2023/09/29 06:38:56;;;;;;;12.95;3.40;;;;;;;-143.29;100.00;62188.47;5051552;28;20033;-88
2023/09/29 06:41:23;;;;;;;15.88;3.58;;;;;;;-143.29;100.00;62188.47;5051329;28;20475;-89
2023/09/29 06:43:48;;;;;;;13.98;3.47;;;;;;;-143.29;100.00;62188.47;5051352;28;20029;-89
2023/09/29 06:46:14;;;;;;;11.13;4.10;;;;;;;-143.29;100.00;62188.47;5050870;28;20357;-88
2023/09/29 06:48:39;;;;;;;12.32;4.05;;;;;;;-143.29;100.00;62188.47;5050866;28;20032;-88
2023/09/29 06:51:04;;;;;;;17.98;4.13;;;;;;;-143.29;100.00;62188.47;5050285;28;20031;-89
2023/09/29 06:53:31;;;;;;;15.63;4.88;;;;;;;-143.29;100.00;62188.47;5050672;28;20029;-89
2023/09/29 06:55:58;;;;;;;8.80;3.50;;;;;;;-143.29;100.00;62188.47;5032863;28;20079;-90
2023/09/29 06:58:23;;;;;;;14.80;4.50;;;;;;;-143.29;100.00;62188.47;5050417;28;20064;-88
2023/09/29 07:00:51;;;;;;;17.15;4.70;;;;;;;-143.29;100.00;62188.47;5051172;28;20056;-88
2023/09/29 07:03:17;;;;;;;14.52;4.00;;;;;;;-143.29;100.00;62188.47;5051295;28;20108;-87
2023/09/29 07:05:42;;;;;;;14.45;4.18;;;;;;;-143.29;100.00;62188.47;5050699;28;20113;-88
2023/09/29 07:08:08;;;;;;;12.85;4.38;;;;;;;-143.29;100.00;62188.47;5050819;28;20479;-89
2023/09/29 07:10:33;;;;;;;11.80;3.63;;;;;;;-143.29;100.00;62188.47;5051177;28;20028;-88
2023/09/29 07:12:59;;;;;;;15.90;4.38;;;;;;;-143.29;100.00;62188.47;5051152;28;20042;-89
2023/09/29 07:15:24;;;;;;;14.18;4.60;;;;;;;-143.29;100.00;62188.47;5050973;28;20089;-88
2023/09/29 07:17:49;;;;;;;16.40;4.63;;;;;;;-143.29;100.00;62188.47;5049807;28;20060;-87
2023/09/29 07:20:15;;;;;;;15.13;4.75;;;;;;;-143.29;100.00;62188.47;5051030;28;20037;-88
2023/09/29 07:22:40;;;;;;;13.93;4.57;;;;;;;-143.29;100.00;62188.47;5050810;28;20021;-89
2023/09/29 07:25:06;;;;;;;19.33;5.25;;;;;;;-143.29;100.00;62188.47;5051100;28;20383;-88
2023/09/29 07:27:31;;;;;;;22.05;4.88;;;;;;;-143.29;100.00;62188.47;5054281;28;20463;-88
2023/09/29 07:29:57;;;;;;;20.70;4.72;;;;;;;-143.29;100.00;62188.47;5054433;28;20035;-88
2023/09/29 07:32:25;;;;;;;19.05;5.03;;;;;;;-143.29;100.00;62188.47;5054446;28;20025;-88
2023/09/29 07:34:50;;;;;;;14.65;4.53;;;;;;;-143.29;100.00;62188.47;5036713;28;20021;-88
2023/09/29 07:37:16;;;;;;;17.70;5.03;;;;;;;-143.29;100.00;62188.47;5054430;28;20509;-89
2023/09/29 07:39:41;;;;;;;21.55;4.75;;;;;;;-143.29;100.00;62188.47;5054416;28;20485;-88
2023/09/29 07:42:06;;;;;;;12.23;4.38;;;;;;;-143.29;100.00;62188.47;5054339;28;20378;-88
2023/09/29 07:44:32;;;;;;;20.13;5.10;;;;;;;-143.29;100.00;62188.47;5054688;28;20029;-89
2023/09/29 07:46:57;;;;;;;19.88;5.03;;;;;;;-143.29;100.00;62188.47;5054156;28;20017;-88
2023/09/29 07:49:24;;;;;;;13.65;4.57;;;;;;;-143.29;100.00;62188.47;5054121;28;20025;-89
2023/09/29 07:51:50;;;;;;;18.63;5.60;;;;;;;-143.29;100.00;62188.47;5053991;28;20104;-88
2023/09/29 07:54:16;;;;;;;15.98;5.43;;;;;;;-143.29;100.00;62188.47;5054153;28;20053;-89
2023/09/29 07:56:47;;;;;;;19.08;6.55;;;;;;;-143.29;100.00;62188.47;5054297;28;20427;-88
2023/09/29 07:59:13;;;;;;;18.73;4.37;;;;;;;-143.29;100.00;62188.47;5053696;28;20112;-88
2023/09/29 08:01:38;;;;;;;15.00;4.75;;;;;;;-143.29;100.00;62188.47;5053950;28;20100;-88
2023/09/29 08:04:04;;;;;;;17.33;5.15;;;;;;;-143.29;100.00;62188.47;5052352;28;20025;-87
2023/09/29 08:06:29;;;;;;;16.73;5.22;;;;;;;-143.29;100.00;62188.47;5053216;28;20028;-88
2023/09/29 08:08:55;;;;;;;17.63;5.45;;;;;;;-143.29;100.00;62188.47;5053675;28;20090;-87
2023/09/29 08:11:20;;;;;;;20.02;5.82;;;;;;;-143.29;100.00;62188.47;5054007;28;20056;-92
2023/09/29 08:13:46;;;;;;;20.00;4.63;;;;;;;-143.29;100.00;62188.47;5035588;28;20052;-85
2023/09/29 08:16:12;;;;;;;15.57;4.57;;;;;;;-143.29;100.00;62188.47;5053702;28;20083;-87
2023/09/29 08:18:37;;;;;;;14.32;4.60;;;;;;;-143.29;100.00;62188.47;5053618;28;20037;-86
2023/09/29 08:21:02;;;;;;;21.73;5.10;;;;;;;-143.29;100.00;62188.47;5052977;28;20057;-88
2023/09/29 08:23:30;;;;;;;12.23;4.63;;;;;;;-143.29;100.00;62188.47;5053317;28;20053;-88
2023/09/29 08:25:56;;;;;;;15.23;4.60;;;;;;;-143.29;100.00;62188.47;5035466;28;20502;-88
2023/09/29 08:28:21;;;;;;;14.10;4.40;;;;;;;-143.29;100.00;62188.47;5053318;28;20108;-88
2023/09/29 08:30:47;;;;;;;13.15;4.72;;;;;;;-143.29;100.00;62188.47;5053320;28;20020;-88
2023/09/29 08:33:12;;;;;;;14.15;4.47;;;;;;;-143.29;100.00;62188.47;5053083;28;20116;-89
2023/09/29 08:35:37;;;;;;;14.52;4.50;;;;;;;-143.29;100.00;62188.47;5052602;28;20056;-89
2023/09/29 08:38:03;;;;;;;15.95;4.82;;;;;;;-143.29;100.00;62188.47;5051922;28;20025;-89
2023/09/29 08:40:36;;;;;;;15.35;4.15;;;;;;;-143.29;100.00;62188.47;5053163;28;20043;-88
2023/09/29 08:43:02;;;;;;;13.60;4.70;;;;;;;-143.29;100.00;62188.47;5053051;28;20061;-92
2023/09/29 08:45:28;;;;;;;9.98;3.88;;;;;;;-143.29;100.00;62188.47;5035301;28;20108;-88
2023/09/29 08:47:57;;;;;;;11.95;3.88;;;;;;;-143.29;100.00;62188.47;5053006;28;20556;-88
2023/09/29 08:50:24;;;;;;;13.40;4.05;;;;;;;-143.29;100.00;62188.47;5051326;28;20029;-88
2023/09/29 08:52:51;;;;;;;13.57;4.65;;;;;;;-143.29;100.00;62188.47;5052982;28;20463;-88
2023/09/29 08:55:17;;;;;;;14.85;4.70;;;;;;;-143.29;100.00;62188.47;5052896;28;20032;-88
2023/09/29 08:57:44;;;;;;;13.98;4.72;;;;;;;-143.29;100.00;62188.47;5052927;28;20379;-88
2023/09/29 09:00:14;;;;;;;15.52;3.55;;;;;;;-143.29;100.00;62188.47;5052911;28;20025;-88
2023/09/29 09:02:43;;;;;;;16.10;3.95;;;;;;;-143.29;100.00;62188.47;5052899;28;20025;-88
2023/09/29 09:05:12;;;;;;;14.15;4.22;;;;;;;-143.29;100.00;62188.47;5052861;28;20024;-88
2023/09/29 09:07:43;;;;;;;11.38;3.50;;;;;;;-143.29;100.00;62188.47;5053205;28;20025;-88
2023/09/29 09:10:10;;;;;;;16.23;3.97;;;;;;;-143.29;100.00;62188.47;5052770;28;20105;-88
2023/09/29 09:12:37;;;;;;;17.75;4.55;;;;;;;-143.29;100.00;62188.47;5052822;28;20478;-88
2023/09/29 09:15:04;;;;;;;13.60;4.13;;;;;;;-143.29;100.00;62188.47;5052650;28;20029;-88
2023/09/29 09:17:34;;;;;;;15.05;3.58;;;;;;;-143.29;100.00;62188.47;5052370;28;20224;-88
2023/09/29 09:20:00;;;;;;;15.85;3.13;;;;;;;-143.29;100.00;62188.47;5052479;28;20073;-88
2023/09/29 09:22:27;;;;;;;10.32;3.80;;;;;;;-143.29;100.00;62188.47;5052493;28;20498;-88
2023/09/29 09:25:00;;;;;;;14.25;3.53;;;;;;;-143.29;100.00;62188.47;5052505;28;20033;-89
2023/09/29 09:27:35;;;;;;;9.10;3.00;;;;;;;-143.29;100.00;62188.47;5052213;28;20108;-88
2023/09/29 09:30:01;;;;;;;17.55;3.17;;;;;;;-143.29;100.00;62188.47;5034360;28;20040;-88
2023/09/29 09:32:27;;;;;;;16.00;3.35;;;;;;;-143.29;100.00;62188.47;5034454;28;20043;-88
2023/09/29 09:34:53;;;;;;;14.13;3.22;;;;;;;-143.29;100.00;62188.47;5052339;28;20063;-88
2023/09/29 09:37:26;;;;;;;13.35;4.10;;;;;;;-143.29;100.00;62188.47;5052315;28;20045;-88
2023/09/29 09:39:55;;;;;;;11.80;3.58;;;;;;;-143.29;100.00;62188.47;5052013;28;20024;-88
2023/09/29 09:42:25;;;;;;;11.05;3.05;;;;;;;-143.29;100.00;62188.47;5052170;28;20104;-88
2023/09/29 09:44:53;;;;;;;9.52;3.17;;;;;;;-143.29;100.00;62188.47;5052110;28;20434;-87
2023/09/29 09:47:20;;;;;;;15.55;3.75;;;;;;;-143.29;100.00;62188.47;5052003;28;20025;-88
2023/09/29 09:49:50;;;;;;;13.57;3.40;;;;;;;-143.29;100.00;62188.47;5051719;28;20025;-88
2023/09/29 09:52:29;;;;;;;12.45;3.35;;;;;;;-143.29;100.00;62188.47;5034011;28;20479;-89
2023/09/29 09:54:57;;;;;;;13.43;3.25;;;;;;;-143.29;100.00;62188.47;5051886;28;20025;-88
2023/09/29 09:57:33;;;;;;;14.02;3.00;;;;;;;-143.29;100.00;62188.47;5051813;28;20024;-88
2023/09/29 10:00:10;;;;;;;12.43;3.50;;;;;;;-143.29;100.00;62188.47;5034003;28;20036;-88
2023/09/29 10:02:56;;;;;;;13.10;4.03;;;;;;;-143.29;100.00;62188.47;5051871;28;20017;-89
2023/09/29 10:05:22;;;;;;;16.08;3.05;;;;;;;-143.29;100.00;62188.47;5050394;28;20041;-88
2023/09/29 10:07:53;;;;;;;14.65;3.42;;;;;;;-143.29;100.00;62188.47;5051813;28;20075;-88
2023/09/29 10:10:35;;;;;;;13.38;2.92;;;;;;;-143.29;100.00;62188.47;5051669;28;20031;-88
2023/09/29 10:13:02;;;;;;;15.63;3.55;;;;;;;-143.29;100.00;62188.47;5051731;28;20027;-88
2023/09/29 10:15:29;;;;;;;13.50;2.50;;;;;;;-143.29;100.00;62188.47;5051631;28;20084;-88
2023/09/29 10:17:59;;;;;;;11.73;2.95;;;;;;;-143.29;100.00;62188.47;5051569;28;20376;-88
2023/09/29 10:20:26;;;;;;;20.58;3.28;;;;;;;-143.29;100.00;62188.47;5051612;28;20032;-88
2023/09/29 10:23:06;;;;;;;12.82;2.78;;;;;;;-143.29;100.00;62188.47;5051609;28;20577;-88
2023/09/29 10:25:35;;;;;;;14.45;3.08;;;;;;;-143.29;100.00;62188.47;5051614;28;20100;-88
2023/09/29 10:28:06;;;;;;;11.90;3.03;;;;;;;-143.29;100.00;62188.47;5051448;28;20044;-88
2023/09/29 10:30:32;;;;;;;13.82;3.40;;;;;;;-143.29;100.00;62188.47;5051402;28;20071;-87
2023/09/29 10:33:09;;;;;;;15.05;2.97;;;;;;;-143.29;100.00;62188.47;5051527;28;20390;-88
2023/09/29 10:35:44;;;;;;;13.73;3.22;;;;;;;-143.29;100.00;62188.47;5051486;28;20029;-88
2023/09/29 10:38:12;;;;;;;17.20;3.75;;;;;;;-143.29;100.00;62188.47;5051760;28;20021;-88
2023/09/29 10:40:38;;;;;;;16.70;2.88;;;;;;;-143.29;100.00;62188.47;5033745;28;20025;-88
2023/09/29 10:43:05;;;;;;;17.38;2.85;;;;;;;-143.29;100.00;62188.47;5051710;28;20032;-88
2023/09/29 10:45:41;;;;;;;11.95;3.42;;;;;;;-143.29;100.00;62188.47;5051581;28;20375;-88
2023/09/29 10:48:07;;;;;;;13.38;3.13;;;;;;;-143.29;100.00;62188.47;5033372;28;20115;-88
2023/09/29 10:50:43;;;;;;;11.02;2.80;;;;;;;-143.29;100.00;62188.47;5051497;28;20090;-88
2023/09/29 10:53:09;;;;;;;11.10;2.88;;;;;;;-143.29;100.00;62188.47;5051353;28;20025;-89
2023/09/29 10:55:41;;;;;;;10.07;3.28;;;;;;;-143.29;100.00;62188.47;5051273;28;20168;-88
2023/09/29 10:58:06;;;;;;;;;;;;;;;-143.29;100.00;62188.47;5051775;28;20025;-88
2023/09/29 11:00:40;;;;;;;15.77;2.63;;;;;;;-143.29;100.00;62188.47;5051360;28;19920;-88
2023/09/29 11:03:08;;;;;;;12.40;2.58;;;;;;;-143.29;100.00;62188.47;5055232;28;20262;-88
2023/09/29 11:05:33;;;;;;;10.98;2.70;;;;;;;-143.29;100.00;62188.47;5055009;28;20467;-88